createdAt,value
2018-08-19T00:02:17.446Z,96.29
2018-08-19T00:05:05.671Z,96.38
2018-08-19T00:07:34.989Z,96.18
2018-08-19T00:10:04.758Z,96.40
2018-08-19T00:12:39.404Z,96.49
2018-08-19T00:15:08.667Z,95.53
2018-08-19T00:17:37.916Z,96.47
2018-08-19T00:20:11.866Z,96.93
2018-08-19T00:22:41.262Z,96.97
2018-08-19T00:25:30.199Z,96.93
2018-08-19T00:27:59.526Z,97.54
2018-08-19T00:30:30.224Z,97.55
2018-08-19T00:32:59.682Z,96.73
2018-08-19T00:35:29.446Z,97.22
2018-08-19T00:37:58.886Z,97.26
2018-08-19T00:40:28.126Z,97.55
2018-08-19T00:42:57.684Z,97.17
2018-08-19T00:45:28.463Z,97.23
2018-08-19T00:47:57.716Z,97.95
2018-08-19T00:50:26.971Z,97.56
2018-08-19T00:52:56.494Z,97.37
2018-08-19T00:55:26.038Z,97.40
2018-08-19T00:57:58.659Z,97.06
2018-08-19T01:00:29.164Z,96.93
2018-08-19T01:02:58.392Z,97.47
2018-08-19T01:05:27.630Z,97.02
2018-08-19T01:07:56.874Z,96.92
2018-08-19T01:10:26.137Z,97.01
2018-08-19T01:12:55.379Z,97.01
2018-08-19T01:15:24.644Z,97.16
2018-08-19T01:17:53.901Z,97.05
2018-08-19T01:20:23.347Z,97.64
2018-08-19T01:22:52.582Z,97.90
2018-08-19T01:25:21.835Z,97.75
2018-08-19T01:27:52.411Z,97.95
2018-08-19T01:30:25.193Z,97.89
2018-08-19T01:32:54.478Z,97.77
2018-08-19T01:35:32.458Z,97.40
2018-08-19T01:38:01.711Z,97.99
2018-08-19T01:40:32.063Z,96.60
2018-08-19T01:43:01.318Z,97.51
2018-08-19T01:45:30.556Z,97.63
2018-08-19T01:47:59.811Z,97.37
2018-08-19T01:50:29.047Z,97.20
2018-08-19T01:52:58.283Z,97.38
2018-08-19T01:55:27.527Z,98.50
2018-08-19T01:57:57.320Z,99.28
2018-08-19T02:00:26.549Z,99.24
2018-08-19T02:02:58.943Z,99.59
2018-08-19T02:05:28.225Z,99.81
2018-08-19T02:07:59.529Z,99.40
2018-08-19T02:10:30.057Z,98.90
2018-08-19T02:12:59.695Z,98.39
2018-08-19T02:15:30.089Z,98.84
2018-08-19T02:18:02.465Z,99.45
2018-08-19T02:20:34.942Z,99.17
2018-08-19T02:23:06.106Z,97.73
2018-08-19T02:25:42.539Z,98.31
2018-08-19T02:28:12.471Z,98.47
2018-08-19T02:30:48.762Z,98.99
2018-08-19T02:33:17.978Z,98.64
2018-08-19T02:35:55.264Z,99.17
2018-08-19T02:38:24.985Z,99.51
2018-08-19T02:40:54.824Z,99.99
2018-08-19T02:43:24.272Z,98.93
2018-08-19T02:45:53.512Z,98.34
2018-08-19T02:48:45.339Z,98.88
2018-08-19T02:51:15.619Z,99.25
2018-08-19T02:53:45.937Z,99.13
2018-08-19T02:56:16.087Z,98.74
2018-08-19T02:58:46.320Z,98.46
2018-08-19T03:01:16.520Z,98.36
2018-08-19T03:03:45.750Z,98.92
2018-08-19T03:06:14.986Z,98.89
2018-08-19T03:08:52.743Z,99.31
2018-08-19T03:11:22.385Z,99.17
2018-08-19T03:13:51.619Z,99.41
2018-08-19T03:16:20.857Z,99.89
2018-08-19T03:18:52.055Z,98.62
2018-08-19T03:21:22.394Z,97.55
2018-08-19T03:23:53.039Z,98.85
2018-08-19T03:26:22.308Z,98.80
2018-08-19T03:28:51.540Z,99.07
2018-08-19T03:31:20.787Z,99.50
2018-08-19T03:33:50.009Z,100.00
2018-08-19T03:36:19.255Z,100.00
2018-08-19T03:38:49.730Z,99.80
2018-08-19T03:41:18.965Z,99.40
2018-08-19T03:43:53.282Z,100.00
2018-08-19T03:46:22.530Z,98.26
2018-08-19T03:48:51.835Z,98.83
2018-08-19T03:51:21.039Z,99.59
2018-08-19T03:53:50.265Z,99.78
2018-08-19T03:56:24.538Z,99.99
2018-08-19T03:58:57.543Z,100.00
2018-08-19T04:01:43.337Z,100.00
2018-08-19T04:04:14.423Z,99.96
2018-08-19T04:06:44.023Z,99.84
2018-08-19T04:09:13.262Z,100.00
2018-08-19T04:11:42.522Z,100.00
2018-08-19T04:14:27.597Z,100.00
2018-08-19T04:16:59.055Z,100.00
2018-08-19T04:19:28.855Z,99.95
2018-08-19T04:22:02.853Z,99.86
2018-08-19T04:24:32.449Z,99.57
2018-08-19T04:27:08.536Z,98.40
2018-08-19T04:29:38.894Z,98.56
2018-08-19T04:32:16.201Z,98.91
2018-08-19T04:34:45.422Z,99.10
2018-08-19T04:37:14.675Z,98.87
2018-08-19T04:39:43.920Z,97.87
2018-08-19T04:42:13.161Z,96.68
2018-08-19T04:44:42.544Z,94.78
2018-08-19T04:47:27.663Z,94.51
2018-08-19T04:49:57.035Z,95.32
2018-08-19T04:52:26.910Z,95.63
2018-08-19T04:54:56.940Z,94.88
2018-08-19T04:57:26.153Z,93.68
2018-08-19T04:59:55.423Z,93.63
2018-08-19T05:02:24.882Z,94.57
2018-08-19T05:04:55.088Z,94.58
2018-08-19T05:07:24.317Z,94.25
2018-08-19T05:09:53.555Z,93.73
2018-08-19T05:12:22.821Z,92.73
2018-08-19T05:14:52.083Z,92.06
2018-08-19T05:17:21.302Z,92.16
2018-08-19T05:19:50.872Z,92.59
2018-08-19T05:22:20.163Z,91.96
2018-08-19T05:24:49.363Z,91.20
2018-08-19T05:27:18.611Z,90.10
2018-08-19T05:29:47.860Z,83.44
2018-08-19T05:32:17.107Z,74.52
2018-08-19T05:34:46.316Z,63.47
2018-08-19T05:37:15.551Z,56.84
2018-08-19T05:39:49.891Z,52.43
2018-08-19T05:42:19.139Z,51.26
2018-08-19T05:44:48.391Z,55.16
2018-08-19T05:47:17.758Z,53.39
2018-08-19T05:49:47.898Z,47.66
2018-08-19T05:52:21.958Z,44.01
2018-08-19T05:54:56.347Z,42.76
2018-08-19T05:57:25.575Z,40.22
2018-08-19T05:59:55.854Z,38.94
2018-08-19T06:02:46.823Z,38.00
2018-08-19T06:05:16.067Z,39.57
2018-08-19T06:07:45.315Z,36.25
2018-08-19T06:10:14.562Z,36.70
2018-08-19T06:12:43.794Z,38.54
2018-08-19T06:15:13.040Z,37.88
2018-08-19T06:17:42.270Z,41.04
2018-08-19T06:20:11.528Z,39.50
2018-08-19T06:22:41.489Z,37.91
2018-08-19T06:25:11.813Z,37.82
2018-08-19T06:27:44.796Z,37.03
2018-08-19T06:30:14.681Z,34.42
2018-08-19T06:32:43.931Z,35.36
2018-08-19T06:35:13.247Z,37.48
2018-08-19T06:37:42.539Z,38.04
2018-08-19T06:40:13.787Z,35.78
2018-08-19T06:42:43.010Z,37.49
2018-08-19T06:45:12.898Z,36.88
2018-08-19T06:47:42.210Z,34.55
2018-08-19T06:50:22.206Z,33.09
2018-08-19T06:52:51.575Z,33.60
2018-08-19T06:55:20.946Z,31.14
2018-08-19T06:57:50.298Z,32.48
2018-08-19T07:00:26.715Z,32.68
2018-08-19T07:02:57.558Z,32.35
2018-08-19T07:05:26.854Z,31.47
2018-08-19T07:07:56.124Z,26.84
2018-08-19T07:10:31.812Z,26.54
2018-08-19T07:13:06.301Z,29.40
2018-08-19T07:15:36.706Z,31.07
2018-08-19T07:18:07.172Z,32.08
2018-08-19T07:20:37.270Z,28.48
2018-08-19T07:23:06.892Z,26.67
2018-08-19T07:25:38.335Z,27.33
2018-08-19T07:28:09.071Z,29.57
2018-08-19T07:30:38.400Z,29.04
2018-08-19T07:33:07.858Z,29.38
2018-08-19T07:35:37.304Z,29.22
2018-08-19T07:38:06.535Z,29.58
2018-08-19T07:40:35.801Z,27.73
2018-08-19T07:43:05.136Z,28.90
2018-08-19T07:45:34.367Z,27.58
2018-08-19T07:48:03.622Z,28.20
2018-08-19T07:50:32.853Z,29.67
2018-08-19T07:53:02.092Z,30.53
2018-08-19T07:55:31.328Z,27.81
2018-08-19T07:58:00.550Z,28.53
2018-08-19T08:00:35.038Z,28.25
2018-08-19T08:03:04.283Z,24.20
2018-08-19T08:05:38.748Z,24.39
2018-08-19T08:08:09.022Z,27.04
2018-08-19T08:10:39.150Z,29.16
2018-08-19T08:13:10.580Z,27.16
2018-08-19T08:15:49.747Z,28.61
2018-08-19T08:18:18.999Z,26.70
2018-08-19T08:20:48.258Z,29.02
2018-08-19T08:23:22.998Z,27.34
2018-08-19T08:25:52.227Z,27.46
2018-08-19T08:28:21.636Z,26.55
2018-08-19T08:30:50.926Z,24.46
2018-08-19T08:33:20.171Z,26.20
2018-08-19T08:35:55.378Z,26.49
2018-08-19T08:38:24.656Z,25.66
2018-08-19T08:40:54.148Z,26.94
2018-08-19T08:43:23.528Z,26.76
2018-08-19T08:45:55.097Z,25.83
2018-08-19T08:48:24.346Z,26.06
2018-08-19T08:50:53.548Z,27.86
2018-08-19T08:53:25.541Z,26.02
2018-08-19T08:55:54.639Z,29.84
2018-08-19T08:58:23.904Z,28.49
2018-08-19T09:00:53.121Z,26.90
2018-08-19T09:03:22.427Z,28.40
2018-08-19T09:05:51.604Z,28.98
2018-08-19T09:08:20.827Z,31.01
2018-08-19T09:10:50.579Z,28.78
2018-08-19T09:13:19.819Z,29.60
2018-08-19T09:15:49.084Z,29.07
2018-08-19T09:18:18.314Z,26.32
2018-08-19T09:20:47.591Z,24.66
2018-08-19T09:23:16.910Z,29.62
2018-08-19T09:25:46.057Z,28.46
2018-08-19T09:28:15.311Z,27.85
2018-08-19T09:30:45.242Z,25.59
2018-08-19T09:33:14.912Z,30.16
2018-08-19T09:35:44.518Z,27.02
2018-08-19T09:38:22.311Z,27.21
2018-08-19T09:40:52.615Z,26.12
2018-08-19T09:43:21.702Z,29.17
2018-08-19T09:45:50.956Z,32.61
2018-08-19T09:48:20.175Z,30.90
2018-08-19T09:50:49.397Z,28.47
2018-08-19T09:53:18.637Z,29.42
2018-08-19T09:55:55.038Z,24.26
2018-08-19T09:58:24.290Z,26.38
2018-08-19T10:01:58.827Z,27.84
2018-08-19T10:04:28.248Z,20.52
2018-08-19T10:07:06.649Z,27.42
2018-08-19T10:09:35.896Z,31.22
2018-08-19T10:12:05.140Z,28.60
2018-08-19T10:14:34.373Z,30.83
2018-08-19T10:17:03.631Z,30.02
2018-08-19T10:19:32.933Z,30.87
2018-08-19T10:22:02.178Z,33.39
2018-08-19T10:24:32.545Z,29.80
2018-08-19T10:27:01.928Z,27.22
2018-08-19T10:29:31.170Z,26.60
2018-08-19T10:32:02.010Z,31.51
2018-08-19T10:34:35.607Z,30.55
2018-08-19T10:37:05.307Z,22.25
2018-08-19T10:39:34.551Z,25.19
2018-08-19T10:42:21.083Z,26.91
2018-08-19T10:44:51.439Z,32.78
2018-08-19T10:47:21.445Z,34.29
2018-08-19T10:50:10.432Z,23.40
2018-08-19T10:52:41.700Z,21.74
2018-08-19T10:55:12.082Z,25.24
2018-08-19T10:57:41.327Z,21.48
2018-08-19T11:00:21.217Z,20.62
2018-08-19T11:02:50.433Z,30.29
2018-08-19T11:05:19.666Z,29.71
2018-08-19T11:07:48.914Z,27.49
2018-08-19T11:10:19.959Z,26.06
2018-08-19T11:12:52.203Z,30.73
2018-08-19T11:15:36.091Z,26.99
2018-08-19T11:18:26.198Z,29.28
2018-08-19T11:21:00.381Z,23.24
2018-08-19T11:23:29.766Z,26.70
2018-08-19T11:25:59.304Z,27.53
2018-08-19T11:28:39.675Z,28.30
2018-08-19T11:31:24.210Z,28.39
2018-08-19T11:33:56.185Z,30.77
2018-08-19T11:36:31.860Z,27.57
2018-08-19T11:39:01.253Z,30.57
2018-08-19T11:41:32.960Z,27.61
2018-08-19T11:44:10.937Z,27.19
2018-08-19T11:46:40.215Z,27.23
2018-08-19T11:49:10.623Z,28.59
2018-08-19T11:51:57.023Z,32.25
2018-08-19T11:54:26.993Z,31.17
2018-08-19T11:57:14.044Z,27.96
2018-08-19T11:59:44.400Z,27.08
2018-08-19T12:02:20.723Z,23.24
2018-08-19T12:04:49.945Z,29.28
2018-08-19T12:07:19.679Z,28.45
2018-08-19T12:09:55.815Z,28.35
2018-08-19T12:12:45.178Z,27.91
2018-08-19T12:15:14.415Z,27.75
2018-08-19T12:17:43.974Z,23.26
2018-08-19T12:20:13.227Z,24.75
2018-08-19T12:22:43.857Z,22.55
2018-08-19T12:25:13.068Z,28.91
2018-08-19T12:27:42.405Z,25.02
2018-08-19T12:30:14.531Z,27.27
2018-08-19T12:32:43.776Z,28.71
2018-08-19T12:35:13.016Z,28.30
2018-08-19T12:37:42.309Z,27.57
2018-08-19T12:40:11.462Z,28.36
2018-08-19T12:42:45.968Z,26.51
2018-08-19T12:45:15.226Z,25.78
2018-08-19T12:47:44.455Z,26.64
2018-08-19T12:50:15.213Z,26.77
2018-08-19T12:52:44.439Z,27.60
2018-08-19T12:55:16.210Z,29.69
2018-08-19T12:57:45.860Z,28.17
2018-08-19T13:00:23.014Z,28.47
2018-08-19T13:02:52.875Z,31.05
2018-08-19T13:05:22.432Z,32.07
2018-08-19T13:07:51.805Z,33.81
2018-08-19T13:10:21.402Z,31.73
2018-08-19T13:12:58.219Z,31.83
2018-08-19T13:15:29.796Z,31.83
2018-08-19T13:17:59.212Z,34.10
2018-08-19T13:20:28.451Z,31.77
2018-08-19T13:23:01.015Z,31.97
2018-08-19T13:25:30.572Z,32.23
2018-08-19T13:27:59.811Z,33.14
2018-08-19T13:30:29.076Z,30.77
2018-08-19T13:32:58.345Z,31.07
2018-08-19T13:35:27.609Z,30.40
2018-08-19T13:37:56.860Z,33.27
2018-08-19T13:40:26.873Z,31.23
2018-08-19T13:42:56.122Z,31.54
2018-08-19T13:45:27.362Z,33.59
2018-08-19T13:47:56.465Z,35.26
2018-08-19T13:50:25.755Z,33.81
2018-08-19T13:52:55.026Z,31.17
2018-08-19T13:55:24.262Z,32.66
2018-08-19T13:57:53.512Z,35.34
2018-08-19T14:00:24.015Z,33.26
2018-08-19T14:02:53.295Z,33.04
2018-08-19T14:05:23.282Z,30.23
2018-08-19T14:07:52.520Z,32.21
2018-08-19T14:10:21.773Z,31.32
2018-08-19T14:12:51.010Z,32.47
2018-08-19T14:15:20.258Z,34.27
2018-08-19T14:17:50.330Z,35.89
2018-08-19T14:20:20.013Z,33.98
2018-08-19T14:22:49.901Z,32.74
2018-08-19T14:25:19.975Z,33.00
2018-08-19T14:27:49.550Z,34.40
2018-08-19T14:30:20.298Z,31.89
2018-08-19T14:32:50.620Z,33.49
2018-08-19T14:35:19.893Z,35.26
2018-08-19T14:37:49.118Z,33.44
2018-08-19T14:40:19.290Z,34.96
2018-08-19T14:42:48.380Z,35.31
2018-08-19T14:45:17.618Z,34.42
2018-08-19T14:47:46.876Z,33.99
2018-08-19T14:50:18.374Z,34.30
2018-08-19T14:52:47.612Z,34.23
2018-08-19T14:55:16.858Z,34.95
2018-08-19T14:57:46.063Z,35.70
2018-08-19T15:00:16.762Z,36.97
2018-08-19T15:02:45.998Z,37.43
2018-08-19T15:05:20.199Z,37.30
2018-08-19T15:07:49.774Z,36.90
2018-08-19T15:10:24.965Z,34.77
2018-08-19T15:12:54.436Z,34.39
2018-08-19T15:15:23.698Z,32.41
2018-08-19T15:17:59.838Z,33.02
2018-08-19T15:20:33.169Z,33.99
2018-08-19T15:23:17.654Z,35.33
2018-08-19T15:25:47.088Z,35.30
2018-08-19T15:28:17.059Z,36.52
2018-08-19T15:30:46.306Z,36.59
2018-08-19T15:33:16.125Z,35.64
2018-08-19T15:35:45.358Z,34.69
2018-08-19T15:38:14.593Z,36.79
2018-08-19T15:40:48.660Z,35.12
2018-08-19T15:43:17.872Z,35.75
2018-08-19T15:45:47.101Z,36.54
2018-08-19T15:48:16.367Z,36.10
2018-08-19T15:50:45.598Z,36.16
2018-08-19T15:53:17.009Z,37.10
2018-08-19T15:55:46.272Z,35.23
2018-08-19T15:58:15.565Z,35.56
2018-08-19T16:00:44.790Z,35.13
2018-08-19T16:03:14.012Z,35.49
2018-08-19T16:05:43.268Z,34.17
2018-08-19T16:08:12.498Z,34.56
2018-08-19T16:10:42.458Z,35.24
2018-08-19T16:13:12.510Z,36.48
2018-08-19T16:15:41.814Z,36.48
2018-08-19T16:18:11.035Z,38.39
2018-08-19T16:20:40.642Z,34.24
2018-08-19T16:23:10.111Z,33.58
2018-08-19T16:25:39.332Z,34.18
2018-08-19T16:28:08.599Z,35.32
2018-08-19T16:30:37.960Z,36.54
2018-08-19T16:33:07.199Z,36.89
2018-08-19T16:35:36.790Z,37.03
2018-08-19T16:38:06.301Z,36.80
2018-08-19T16:40:35.533Z,34.50
2018-08-19T16:43:05.795Z,37.26
2018-08-19T16:45:35.019Z,36.87
2018-08-19T16:48:04.275Z,34.81
2018-08-19T16:50:33.523Z,35.97
2018-08-19T16:53:02.741Z,35.82
2018-08-19T16:55:32.006Z,35.24
2018-08-19T16:58:07.950Z,34.81
2018-08-19T17:00:37.173Z,36.45
2018-08-19T17:03:33.967Z,37.27
2018-08-19T17:06:03.624Z,38.45
2018-08-19T17:08:33.014Z,36.48
2018-08-19T17:11:02.256Z,39.01
2018-08-19T17:13:31.547Z,40.63
2018-08-19T17:16:00.818Z,40.88
2018-08-19T17:18:30.277Z,40.88
2018-08-19T17:20:59.511Z,40.82
2018-08-19T17:23:28.722Z,41.19
2018-08-19T17:26:05.581Z,41.60
2018-08-19T17:28:34.777Z,41.98
2018-08-19T17:31:04.003Z,43.04
2018-08-19T17:33:33.226Z,43.55
2018-08-19T17:36:02.475Z,42.54
2018-08-19T17:38:34.801Z,44.80
2018-08-19T17:41:04.432Z,45.61
2018-08-19T17:43:38.983Z,46.43
2018-08-19T17:46:12.007Z,49.23
2018-08-19T17:48:42.191Z,48.93
2018-08-19T17:51:27.211Z,50.63
2018-08-19T17:53:56.444Z,51.54
2018-08-19T17:56:25.702Z,52.12
2018-08-19T17:58:54.955Z,53.27
2018-08-19T18:01:24.322Z,55.18
2018-08-19T18:03:53.537Z,56.23
2018-08-19T18:06:22.770Z,57.37
2018-08-19T18:08:52.791Z,57.60
2018-08-19T18:11:22.364Z,56.79
2018-08-19T18:13:51.583Z,56.13
2018-08-19T18:16:20.834Z,57.45
2018-08-19T18:18:50.082Z,57.93
2018-08-19T18:21:19.331Z,59.80
2018-08-19T18:23:49.447Z,60.78
2018-08-19T18:26:18.689Z,61.19
2018-08-19T18:28:48.781Z,62.76
2018-08-19T18:31:22.516Z,63.40
2018-08-19T18:33:58.958Z,64.60
2018-08-19T18:36:29.722Z,66.22
2018-08-19T18:38:59.402Z,65.23
2018-08-19T18:41:31.602Z,66.13
2018-08-19T18:44:02.867Z,68.33
2018-08-19T18:46:32.504Z,68.66
2018-08-19T18:49:13.304Z,68.21
2018-08-19T18:51:44.920Z,68.53
2018-08-19T18:54:20.802Z,67.80
2018-08-19T18:56:50.080Z,67.37
2018-08-19T18:59:19.322Z,67.64
2018-08-19T19:01:48.560Z,69.08
2018-08-19T19:04:17.767Z,68.74
2018-08-19T19:06:47.019Z,70.03
2018-08-19T19:09:16.235Z,71.38
2018-08-19T19:11:45.491Z,72.16
2018-08-19T19:14:19.175Z,70.53
2018-08-19T19:16:50.699Z,69.14
2018-08-19T19:19:20.203Z,70.63
2018-08-19T19:21:54.567Z,72.37
2018-08-19T19:24:39.530Z,73.28
2018-08-19T19:27:09.412Z,74.41
2018-08-19T19:29:38.650Z,73.88
2018-08-19T19:32:17.939Z,75.25
2018-08-19T19:34:47.158Z,73.77
2018-08-19T19:37:16.410Z,74.50
2018-08-19T19:39:45.830Z,75.44
2018-08-19T19:42:15.061Z,77.20
2018-08-19T19:44:44.308Z,73.36
2018-08-19T19:47:13.532Z,72.59
2018-08-19T19:49:47.986Z,71.52
2018-08-19T19:52:17.190Z,73.39
2018-08-19T19:54:46.414Z,72.84
2018-08-19T19:57:15.639Z,73.59
2018-08-19T19:59:44.869Z,73.85
2018-08-19T20:02:19.540Z,74.91
2018-08-19T20:04:48.778Z,76.15
2018-08-19T20:07:18.094Z,77.03
2018-08-19T20:09:47.319Z,76.09
2018-08-19T20:12:25.637Z,76.77
2018-08-19T20:14:54.880Z,75.30
2018-08-19T20:17:24.135Z,75.53
2018-08-19T20:19:53.383Z,76.24
2018-08-19T20:22:22.639Z,75.84
2018-08-19T20:24:51.866Z,77.61
2018-08-19T20:27:22.343Z,79.07
2018-08-19T20:29:53.533Z,78.68
2018-08-19T20:32:22.932Z,80.39
2018-08-19T20:34:52.424Z,81.64
2018-08-19T20:37:24.467Z,81.28
2018-08-19T20:39:54.225Z,82.77
2018-08-19T20:42:23.570Z,83.17
2018-08-19T20:44:52.816Z,83.71
2018-08-19T20:47:22.035Z,84.47
2018-08-19T20:49:51.432Z,84.31
2018-08-19T20:52:35.038Z,82.82
2018-08-19T20:55:04.300Z,83.97
2018-08-19T20:57:33.703Z,83.95
2018-08-19T21:00:03.042Z,83.33
2018-08-19T21:02:32.187Z,81.92
2018-08-19T21:05:01.418Z,84.07
2018-08-19T21:07:30.658Z,85.60
2018-08-19T21:10:00.911Z,84.77
2018-08-19T21:12:30.156Z,86.11
2018-08-19T21:14:59.558Z,85.26
2018-08-19T21:17:31.355Z,84.90
2018-08-19T21:20:00.753Z,86.41
2018-08-19T21:22:30.047Z,86.31
2018-08-19T21:24:59.263Z,86.34
2018-08-19T21:27:28.493Z,86.20
2018-08-19T21:29:57.776Z,84.95
2018-08-19T21:32:26.983Z,85.88
2018-08-19T21:34:56.969Z,86.71
2018-08-19T21:37:34.260Z,87.57
2018-08-19T21:40:04.464Z,87.75
2018-08-19T21:42:48.798Z,86.83
2018-08-19T21:45:18.019Z,87.74
2018-08-19T21:47:47.349Z,88.62
2018-08-19T21:50:16.576Z,88.92
2018-08-19T21:53:08.840Z,89.16
2018-08-19T21:55:41.381Z,89.36
2018-08-19T21:58:10.658Z,88.98
2018-08-19T22:00:42.769Z,89.16
2018-08-19T22:03:21.223Z,89.20
2018-08-19T22:05:52.552Z,89.50
2018-08-19T22:08:23.258Z,87.56
2018-08-19T22:10:52.541Z,89.57
2018-08-19T22:13:21.803Z,89.95
2018-08-19T22:15:51.052Z,89.88
2018-08-19T22:18:21.469Z,90.04
2018-08-19T22:21:13.578Z,89.64
2018-08-19T22:23:46.118Z,90.66
2018-08-19T22:26:16.393Z,90.65
2018-08-19T22:28:46.015Z,90.09
2018-08-19T22:31:26.445Z,90.24
2018-08-19T22:33:57.007Z,90.20
2018-08-19T22:36:26.666Z,88.58
2018-08-19T22:38:56.687Z,88.48
2018-08-19T22:41:29.370Z,88.85
2018-08-19T22:43:58.851Z,90.55
2018-08-19T22:46:28.549Z,92.13
2018-08-19T22:48:58.335Z,92.66
2018-08-19T22:51:33.111Z,92.75
2018-08-19T22:54:02.355Z,92.47
2018-08-19T22:56:31.594Z,92.53
2018-08-19T22:59:00.830Z,92.41
2018-08-19T23:01:35.299Z,92.26
2018-08-19T23:04:04.697Z,93.08
2018-08-19T23:06:34.289Z,93.43
2018-08-19T23:09:04.885Z,92.82
2018-08-19T23:11:39.234Z,92.12
2018-08-19T23:16:31.216Z,92.16
2018-08-19T23:19:00.449Z,90.38
2018-08-19T23:21:29.704Z,89.49
2018-08-19T23:23:58.939Z,91.01
2018-08-19T23:26:28.175Z,91.72
2018-08-19T23:28:57.420Z,93.09
2018-08-19T23:31:26.643Z,92.27
2018-08-19T23:33:55.882Z,90.25
2018-08-19T23:36:25.999Z,90.07
2018-08-19T23:38:55.253Z,91.42
2018-08-19T23:41:24.503Z,92.94
2018-08-19T23:43:53.723Z,93.21
2018-08-19T23:46:22.942Z,94.29
2018-08-19T23:48:52.212Z,93.75
2018-08-19T23:51:25.659Z,93.77
2018-08-19T23:53:55.080Z,94.28
2018-08-19T23:56:24.455Z,94.38
2018-08-19T23:58:53.699Z,94.98
